sensor_id;sensor_type;location;lat;lon;timestamp;temperature;humidity
61398;DHT22;47267;48.130;-2.040;2022-09-29T00:01:48;18.70;61.30
61398;DHT22;47267;48.130;-2.040;2022-09-29T00:04:13;18.70;61.30
61398;DHT22;47267;48.130;-2.040;2022-09-29T00:06:39;18.70;61.30
61398;DHT22;47267;48.130;-2.040;2022-09-29T00:09:05;18.70;61.30
61398;DHT22;47267;48.130;-2.040;2022-09-29T00:11:31;18.70;61.30
61398;DHT22;47267;48.130;-2.040;2022-09-29T00:13:56;18.70;61.30
61398;DHT22;47267;48.130;-2.040;2022-09-29T00:16:23;18.60;61.30
61398;DHT22;47267;48.130;-2.040;2022-09-29T00:18:48;18.70;61.40
61398;DHT22;47267;48.130;-2.040;2022-09-29T00:21:16;18.60;61.30
61398;DHT22;47267;48.130;-2.040;2022-09-29T00:23:44;18.60;61.20
61398;DHT22;47267;48.130;-2.040;2022-09-29T00:26:13;18.60;61.30
61398;DHT22;47267;48.130;-2.040;2022-09-29T00:28:41;18.60;61.20
61398;DHT22;47267;48.130;-2.040;2022-09-29T00:31:10;18.60;61.30
61398;DHT22;47267;48.130;-2.040;2022-09-29T00:33:37;18.60;61.20
61398;DHT22;47267;48.130;-2.040;2022-09-29T00:36:09;18.60;61.90
61398;DHT22;47267;48.130;-2.040;2022-09-29T00:38:35;18.60;61.20
61398;DHT22;47267;48.130;-2.040;2022-09-29T00:41:01;18.60;61.20
61398;DHT22;47267;48.130;-2.040;2022-09-29T00:46:13;18.60;61.20
61398;DHT22;47267;48.130;-2.040;2022-09-29T00:48:40;18.50;61.20
61398;DHT22;47267;48.130;-2.040;2022-09-29T00:51:07;18.50;61.10
61398;DHT22;47267;48.130;-2.040;2022-09-29T00:53:34;18.50;61.70
61398;DHT22;47267;48.130;-2.040;2022-09-29T00:56:07;18.50;61.10
61398;DHT22;47267;48.130;-2.040;2022-09-29T01:01:06;18.50;61.10
61398;DHT22;47267;48.130;-2.040;2022-09-29T01:03:39;18.50;61.10
61398;DHT22;47267;48.130;-2.040;2022-09-29T01:06:19;18.50;61.10
61398;DHT22;47267;48.130;-2.040;2022-09-29T01:08:59;18.50;61.10
61398;DHT22;47267;48.130;-2.040;2022-09-29T01:11:26;18.50;61.10
61398;DHT22;47267;48.130;-2.040;2022-09-29T01:13:53;18.50;61.10
61398;DHT22;47267;48.130;-2.040;2022-09-29T01:16:20;18.40;61.00
61398;DHT22;47267;48.130;-2.040;2022-09-29T01:18:46;18.40;61.00
61398;DHT22;47267;48.130;-2.040;2022-09-29T01:35:11;18.40;61.00
61398;DHT22;47267;48.130;-2.040;2022-09-29T01:38:13;18.30;60.90
61398;DHT22;47267;48.130;-2.040;2022-09-29T01:43:17;18.40;60.90
61398;DHT22;47267;48.130;-2.040;2022-09-29T01:45:59;18.30;60.90
61398;DHT22;47267;48.130;-2.040;2022-09-29T01:48:31;18.30;60.90
61398;DHT22;47267;48.130;-2.040;2022-09-29T01:51:00;18.30;60.90
61398;DHT22;47267;48.130;-2.040;2022-09-29T01:53:38;18.30;60.90
61398;DHT22;47267;48.130;-2.040;2022-09-29T01:56:13;18.30;60.90
61398;DHT22;47267;48.130;-2.040;2022-09-29T01:58:57;18.30;60.90
61398;DHT22;47267;48.130;-2.040;2022-09-29T02:01:29;18.30;60.80
61398;DHT22;47267;48.130;-2.040;2022-09-29T02:04:06;18.30;60.80
61398;DHT22;47267;48.130;-2.040;2022-09-29T02:06:42;18.30;60.80
61398;DHT22;47267;48.130;-2.040;2022-09-29T02:09:17;18.30;60.80
61398;DHT22;47267;48.130;-2.040;2022-09-29T02:11:44;18.30;60.80
61398;DHT22;47267;48.130;-2.040;2022-09-29T02:14:18;18.30;60.80
61398;DHT22;47267;48.130;-2.040;2022-09-29T02:17:40;18.20;60.80
61398;DHT22;47267;48.130;-2.040;2022-09-29T02:19:50;18.20;60.70
61398;DHT22;47267;48.130;-2.040;2022-09-29T02:22:16;18.20;60.70
61398;DHT22;47267;48.130;-2.040;2022-09-29T02:24:42;18.20;60.70
61398;DHT22;47267;48.130;-2.040;2022-09-29T02:27:09;18.20;60.70
61398;DHT22;47267;48.130;-2.040;2022-09-29T02:29:36;18.20;60.70
61398;DHT22;47267;48.130;-2.040;2022-09-29T02:32:03;18.20;60.60
61398;DHT22;47267;48.130;-2.040;2022-09-29T02:34:32;18.20;60.70
61398;DHT22;47267;48.130;-2.040;2022-09-29T02:43:01;18.20;60.60
61398;DHT22;47267;48.130;-2.040;2022-09-29T02:53:46;18.10;60.60
61398;DHT22;47267;48.130;-2.040;2022-09-29T02:59:04;18.10;60.60
61398;DHT22;47267;48.130;-2.040;2022-09-29T03:01:32;18.10;60.60
61398;DHT22;47267;48.130;-2.040;2022-09-29T03:03:59;18.10;60.60
61398;DHT22;47267;48.130;-2.040;2022-09-29T03:06:25;18.10;60.60
61398;DHT22;47267;48.130;-2.040;2022-09-29T03:08:52;18.10;60.60
61398;DHT22;47267;48.130;-2.040;2022-09-29T03:11:17;18.00;60.50
61398;DHT22;47267;48.130;-2.040;2022-09-29T03:13:43;18.00;60.50
61398;DHT22;47267;48.130;-2.040;2022-09-29T03:16:09;18.00;60.50
61398;DHT22;47267;48.130;-2.040;2022-09-29T03:18:34;18.00;60.60
61398;DHT22;47267;48.130;-2.040;2022-09-29T03:21:00;18.00;60.50
61398;DHT22;47267;48.130;-2.040;2022-09-29T03:23:25;18.00;60.50
61398;DHT22;47267;48.130;-2.040;2022-09-29T03:25:51;18.00;60.50
61398;DHT22;47267;48.130;-2.040;2022-09-29T03:28:17;18.00;60.50
61398;DHT22;47267;48.130;-2.040;2022-09-29T03:30:43;18.00;60.50
61398;DHT22;47267;48.130;-2.040;2022-09-29T03:33:10;18.00;60.50
61398;DHT22;47267;48.130;-2.040;2022-09-29T03:35:36;18.00;60.50
61398;DHT22;47267;48.130;-2.040;2022-09-29T03:38:01;18.00;60.40
61398;DHT22;47267;48.130;-2.040;2022-09-29T03:40:27;18.00;60.40
61398;DHT22;47267;48.130;-2.040;2022-09-29T03:42:53;17.90;60.40
61398;DHT22;47267;48.130;-2.040;2022-09-29T03:45:19;18.00;60.40
61398;DHT22;47267;48.130;-2.040;2022-09-29T03:47:45;17.90;60.40
61398;DHT22;47267;48.130;-2.040;2022-09-29T03:50:10;17.90;60.30
61398;DHT22;47267;48.130;-2.040;2022-09-29T03:52:36;17.90;60.30
61398;DHT22;47267;48.130;-2.040;2022-09-29T03:55:03;17.90;60.40
61398;DHT22;47267;48.130;-2.040;2022-09-29T03:57:28;17.90;60.30
61398;DHT22;47267;48.130;-2.040;2022-09-29T03:59:54;17.90;60.30
61398;DHT22;47267;48.130;-2.040;2022-09-29T04:02:23;17.90;60.30
61398;DHT22;47267;48.130;-2.040;2022-09-29T04:04:49;17.90;60.30
61398;DHT22;47267;48.130;-2.040;2022-09-29T04:07:15;17.90;60.30
61398;DHT22;47267;48.130;-2.040;2022-09-29T04:09:40;17.90;60.30
61398;DHT22;47267;48.130;-2.040;2022-09-29T04:12:06;17.90;60.30
61398;DHT22;47267;48.130;-2.040;2022-09-29T04:14:32;17.90;60.30
61398;DHT22;47267;48.130;-2.040;2022-09-29T04:16:57;17.80;60.30
61398;DHT22;47267;48.130;-2.040;2022-09-29T04:19:23;17.80;60.30
61398;DHT22;47267;48.130;-2.040;2022-09-29T04:21:49;17.80;60.30
61398;DHT22;47267;48.130;-2.040;2022-09-29T04:24:15;17.80;60.20
61398;DHT22;47267;48.130;-2.040;2022-09-29T04:26:40;17.80;60.30
61398;DHT22;47267;48.130;-2.040;2022-09-29T04:29:06;17.80;60.20
61398;DHT22;47267;48.130;-2.040;2022-09-29T04:31:32;17.80;60.20
61398;DHT22;47267;48.130;-2.040;2022-09-29T04:33:58;17.80;60.20
61398;DHT22;47267;48.130;-2.040;2022-09-29T04:36:23;17.80;60.20
61398;DHT22;47267;48.130;-2.040;2022-09-29T04:38:49;17.80;60.20
61398;DHT22;47267;48.130;-2.040;2022-09-29T04:41:16;17.80;60.30
61398;DHT22;47267;48.130;-2.040;2022-09-29T04:43:42;17.80;60.20
61398;DHT22;47267;48.130;-2.040;2022-09-29T04:46:08;17.80;60.20
61398;DHT22;47267;48.130;-2.040;2022-09-29T04:48:35;17.80;60.20
61398;DHT22;47267;48.130;-2.040;2022-09-29T04:51:01;17.80;60.20
61398;DHT22;47267;48.130;-2.040;2022-09-29T04:53:26;17.70;60.10
61398;DHT22;47267;48.130;-2.040;2022-09-29T04:55:52;17.70;60.10
61398;DHT22;47267;48.130;-2.040;2022-09-29T04:58:19;17.70;60.10
61398;DHT22;47267;48.130;-2.040;2022-09-29T05:00:45;17.70;60.10
61398;DHT22;47267;48.130;-2.040;2022-09-29T05:03:10;17.70;60.10
61398;DHT22;47267;48.130;-2.040;2022-09-29T05:05:36;17.70;60.10
61398;DHT22;47267;48.130;-2.040;2022-09-29T05:08:03;17.70;60.10
61398;DHT22;47267;48.130;-2.040;2022-09-29T05:10:29;17.60;60.00
61398;DHT22;47267;48.130;-2.040;2022-09-29T05:12:59;17.70;60.00
61398;DHT22;47267;48.130;-2.040;2022-09-29T05:15:28;17.70;60.10
61398;DHT22;47267;48.130;-2.040;2022-09-29T05:17:53;17.70;60.10
61398;DHT22;47267;48.130;-2.040;2022-09-29T05:20:19;17.70;60.10
61398;DHT22;47267;48.130;-2.040;2022-09-29T05:22:45;17.70;60.10
61398;DHT22;47267;48.130;-2.040;2022-09-29T05:25:10;17.60;60.00
61398;DHT22;47267;48.130;-2.040;2022-09-29T05:27:37;17.60;60.10
61398;DHT22;47267;48.130;-2.040;2022-09-29T05:30:03;17.60;60.00
61398;DHT22;47267;48.130;-2.040;2022-09-29T05:32:29;17.60;60.10
61398;DHT22;47267;48.130;-2.040;2022-09-29T05:34:55;17.60;60.10
61398;DHT22;47267;48.130;-2.040;2022-09-29T05:37:20;17.60;60.10
61398;DHT22;47267;48.130;-2.040;2022-09-29T05:39:46;17.60;60.10
61398;DHT22;47267;48.130;-2.040;2022-09-29T05:42:12;17.60;60.10
61398;DHT22;47267;48.130;-2.040;2022-09-29T05:44:37;17.60;60.10
61398;DHT22;47267;48.130;-2.040;2022-09-29T05:47:03;17.50;60.10
61398;DHT22;47267;48.130;-2.040;2022-09-29T05:49:29;17.60;60.10
61398;DHT22;47267;48.130;-2.040;2022-09-29T05:51:57;17.60;60.10
61398;DHT22;47267;48.130;-2.040;2022-09-29T05:54:23;17.60;60.10
61398;DHT22;47267;48.130;-2.040;2022-09-29T05:56:49;17.60;60.10
61398;DHT22;47267;48.130;-2.040;2022-09-29T05:59:15;17.50;60.10
61398;DHT22;47267;48.130;-2.040;2022-09-29T06:01:41;17.50;60.10
61398;DHT22;47267;48.130;-2.040;2022-09-29T06:04:08;17.50;60.10
61398;DHT22;47267;48.130;-2.040;2022-09-29T06:06:33;17.50;60.80
61398;DHT22;47267;48.130;-2.040;2022-09-29T06:09:04;17.50;60.20
61398;DHT22;47267;48.130;-2.040;2022-09-29T06:11:30;17.50;60.20
61398;DHT22;47267;48.130;-2.040;2022-09-29T06:13:56;17.50;60.30
61398;DHT22;47267;48.130;-2.040;2022-09-29T06:16:28;17.50;60.30
61398;DHT22;47267;48.130;-2.040;2022-09-29T06:18:54;17.50;60.30
61398;DHT22;47267;48.130;-2.040;2022-09-29T06:21:24;17.50;60.30
61398;DHT22;47267;48.130;-2.040;2022-09-29T06:23:52;17.50;60.30
61398;DHT22;47267;48.130;-2.040;2022-09-29T06:26:19;17.50;60.30
61398;DHT22;47267;48.130;-2.040;2022-09-29T06:28:44;17.50;60.30
61398;DHT22;47267;48.130;-2.040;2022-09-29T06:31:13;17.50;60.30
61398;DHT22;47267;48.130;-2.040;2022-09-29T06:33:39;17.50;60.40
61398;DHT22;47267;48.130;-2.040;2022-09-29T06:36:24;17.50;60.40
61398;DHT22;47267;48.130;-2.040;2022-09-29T06:39:11;17.50;60.40
61398;DHT22;47267;48.130;-2.040;2022-09-29T06:41:37;17.50;60.50
61398;DHT22;47267;48.130;-2.040;2022-09-29T06:44:03;17.50;60.50
61398;DHT22;47267;48.130;-2.040;2022-09-29T06:46:29;17.40;60.50
61398;DHT22;47267;48.130;-2.040;2022-09-29T06:48:55;17.40;60.50
61398;DHT22;47267;48.130;-2.040;2022-09-29T06:51:22;17.40;60.50
61398;DHT22;47267;48.130;-2.040;2022-09-29T06:53:49;17.50;60.60
61398;DHT22;47267;48.130;-2.040;2022-09-29T06:56:14;17.40;60.60
61398;DHT22;47267;48.130;-2.040;2022-09-29T06:58:40;17.40;60.60
61398;DHT22;47267;48.130;-2.040;2022-09-29T07:01:06;17.40;60.60
61398;DHT22;47267;48.130;-2.040;2022-09-29T07:03:32;17.40;60.60
61398;DHT22;47267;48.130;-2.040;2022-09-29T07:06:07;17.40;60.70
61398;DHT22;47267;48.130;-2.040;2022-09-29T07:08:33;17.40;60.60
61398;DHT22;47267;48.130;-2.040;2022-09-29T07:11:01;17.40;60.70
61398;DHT22;47267;48.130;-2.040;2022-09-29T07:13:30;17.40;60.70
61398;DHT22;47267;48.130;-2.040;2022-09-29T07:16:01;17.40;60.70
61398;DHT22;47267;48.130;-2.040;2022-09-29T07:18:27;17.40;60.70
61398;DHT22;47267;48.130;-2.040;2022-09-29T07:20:55;17.40;60.70
61398;DHT22;47267;48.130;-2.040;2022-09-29T07:23:21;17.40;60.70
61398;DHT22;47267;48.130;-2.040;2022-09-29T07:25:46;17.40;60.70
61398;DHT22;47267;48.130;-2.040;2022-09-29T07:28:12;17.40;60.70
61398;DHT22;47267;48.130;-2.040;2022-09-29T07:30:38;17.40;60.70
61398;DHT22;47267;48.130;-2.040;2022-09-29T07:33:04;17.40;60.70
61398;DHT22;47267;48.130;-2.040;2022-09-29T07:35:29;17.30;60.70
61398;DHT22;47267;48.130;-2.040;2022-09-29T07:37:55;17.30;60.70
61398;DHT22;47267;48.130;-2.040;2022-09-29T07:40:22;17.30;60.70
61398;DHT22;47267;48.130;-2.040;2022-09-29T07:42:49;17.40;60.80
61398;DHT22;47267;48.130;-2.040;2022-09-29T07:45:16;17.30;60.70
61398;DHT22;47267;48.130;-2.040;2022-09-29T07:47:42;17.30;60.70
61398;DHT22;47267;48.130;-2.040;2022-09-29T07:50:09;17.30;60.80
61398;DHT22;47267;48.130;-2.040;2022-09-29T07:52:35;17.30;60.70
61398;DHT22;47267;48.130;-2.040;2022-09-29T07:55:02;17.30;60.70
61398;DHT22;47267;48.130;-2.040;2022-09-29T07:57:28;17.30;60.60
61398;DHT22;47267;48.130;-2.040;2022-09-29T07:59:53;17.30;60.70
61398;DHT22;47267;48.130;-2.040;2022-09-29T08:02:22;17.30;60.70
61398;DHT22;47267;48.130;-2.040;2022-09-29T08:04:49;17.30;60.70
61398;DHT22;47267;48.130;-2.040;2022-09-29T08:07:14;17.30;60.70
61398;DHT22;47267;48.130;-2.040;2022-09-29T08:09:40;17.30;60.90
61398;DHT22;47267;48.130;-2.040;2022-09-29T08:12:06;17.30;61.20
61398;DHT22;47267;48.130;-2.040;2022-09-29T08:14:32;17.40;61.00
61398;DHT22;47267;48.130;-2.040;2022-09-29T08:16:58;17.40;61.10
61398;DHT22;47267;48.130;-2.040;2022-09-29T08:19:23;17.40;61.40
61398;DHT22;47267;48.130;-2.040;2022-09-29T08:21:51;17.40;61.60
61398;DHT22;47267;48.130;-2.040;2022-09-29T08:24:16;17.40;61.30
61398;DHT22;47267;48.130;-2.040;2022-09-29T08:26:43;17.40;61.20
61398;DHT22;47267;48.130;-2.040;2022-09-29T08:29:10;17.50;61.20
61398;DHT22;47267;48.130;-2.040;2022-09-29T08:31:36;17.50;61.30
61398;DHT22;47267;48.130;-2.040;2022-09-29T08:34:06;17.50;61.30
61398;DHT22;47267;48.130;-2.040;2022-09-29T08:36:32;17.50;61.20
61398;DHT22;47267;48.130;-2.040;2022-09-29T08:38:58;17.50;61.30
61398;DHT22;47267;48.130;-2.040;2022-09-29T08:47:12;17.50;61.00
61398;DHT22;47267;48.130;-2.040;2022-09-29T08:49:56;17.60;61.10
61398;DHT22;47267;48.130;-2.040;2022-09-29T08:52:28;17.60;61.20
61398;DHT22;47267;48.130;-2.040;2022-09-29T08:55:11;17.60;61.00
61398;DHT22;47267;48.130;-2.040;2022-09-29T08:57:42;17.60;61.00
61398;DHT22;47267;48.130;-2.040;2022-09-29T09:00:13;17.60;61.00
61398;DHT22;47267;48.130;-2.040;2022-09-29T09:02:53;17.60;60.90
61398;DHT22;47267;48.130;-2.040;2022-09-29T09:08:27;17.60;60.80
61398;DHT22;47267;48.130;-2.040;2022-09-29T09:16:16;17.70;60.90
61398;DHT22;47267;48.130;-2.040;2022-09-29T09:21:39;17.70;60.90
61398;DHT22;47267;48.130;-2.040;2022-09-29T09:26:41;17.70;60.90
61398;DHT22;47267;48.130;-2.040;2022-09-29T09:29:35;17.70;60.90
61398;DHT22;47267;48.130;-2.040;2022-09-29T09:32:24;17.70;60.90
61398;DHT22;47267;48.130;-2.040;2022-09-29T09:34:54;17.70;60.90
61398;DHT22;47267;48.130;-2.040;2022-09-29T09:37:25;17.70;60.90
61398;DHT22;47267;48.130;-2.040;2022-09-29T09:42:35;17.70;60.90
61398;DHT22;47267;48.130;-2.040;2022-09-29T09:45:13;17.70;60.90
61398;DHT22;47267;48.130;-2.040;2022-09-29T09:47:47;17.70;60.90
61398;DHT22;47267;48.130;-2.040;2022-09-29T09:50:18;17.80;60.90
61398;DHT22;47267;48.130;-2.040;2022-09-29T09:52:50;17.80;60.90
61398;DHT22;47267;48.130;-2.040;2022-09-29T09:55:21;17.80;60.90
61398;DHT22;47267;48.130;-2.040;2022-09-29T10:01:02;17.80;60.90
61398;DHT22;47267;48.130;-2.040;2022-09-29T10:03:29;17.80;60.80
61398;DHT22;47267;48.130;-2.040;2022-09-29T10:05:56;17.80;60.90
61398;DHT22;47267;48.130;-2.040;2022-09-29T10:08:28;17.80;60.80
61398;DHT22;47267;48.130;-2.040;2022-09-29T10:10:57;17.80;60.80
61398;DHT22;47267;48.130;-2.040;2022-09-29T10:13:28;17.80;60.80
61398;DHT22;47267;48.130;-2.040;2022-09-29T10:16:19;17.80;60.80
61398;DHT22;47267;48.130;-2.040;2022-09-29T10:18:49;17.80;60.80
61398;DHT22;47267;48.130;-2.040;2022-09-29T10:23:52;17.80;60.80
61398;DHT22;47267;48.130;-2.040;2022-09-29T10:32:13;17.80;60.80
61398;DHT22;47267;48.130;-2.040;2022-09-29T10:34:41;17.80;60.80
61398;DHT22;47267;48.130;-2.040;2022-09-29T10:40:15;17.80;60.70
61398;DHT22;47267;48.130;-2.040;2022-09-29T10:42:44;17.80;60.70
61398;DHT22;47267;48.130;-2.040;2022-09-29T10:45:17;17.80;60.70
61398;DHT22;47267;48.130;-2.040;2022-09-29T10:50:30;17.80;60.70
61398;DHT22;47267;48.130;-2.040;2022-09-29T10:53:05;17.80;60.70
61398;DHT22;47267;48.130;-2.040;2022-09-29T10:55:50;17.80;60.60
61398;DHT22;47267;48.130;-2.040;2022-09-29T10:58:36;17.80;60.60
61398;DHT22;47267;48.130;-2.040;2022-09-29T11:01:12;17.80;60.70
61398;DHT22;47267;48.130;-2.040;2022-09-29T11:04:02;17.80;60.60
61398;DHT22;47267;48.130;-2.040;2022-09-29T11:06:37;17.80;60.60
61398;DHT22;47267;48.130;-2.040;2022-09-29T11:12:02;17.80;60.60
61398;DHT22;47267;48.130;-2.040;2022-09-29T11:19:57;17.80;60.60
61398;DHT22;47267;48.130;-2.040;2022-09-29T11:35:57;17.80;60.60
61398;DHT22;47267;48.130;-2.040;2022-09-29T11:41:20;17.80;60.60
61398;DHT22;47267;48.130;-2.040;2022-09-29T11:52:02;17.80;60.50
61398;DHT22;47267;48.130;-2.040;2022-09-29T12:00:11;17.70;60.40
61398;DHT22;47267;48.130;-2.040;2022-09-29T12:16:19;17.70;60.40
61398;DHT22;47267;48.130;-2.040;2022-09-29T12:19:05;17.70;60.40
61398;DHT22;47267;48.130;-2.040;2022-09-29T12:21:47;17.70;60.40
61398;DHT22;47267;48.130;-2.040;2022-09-29T12:24:36;17.70;60.40
61398;DHT22;47267;48.130;-2.040;2022-09-29T12:27:21;17.70;60.40
61398;DHT22;47267;48.130;-2.040;2022-09-29T12:30:03;17.70;60.40
61398;DHT22;47267;48.130;-2.040;2022-09-29T12:32:40;17.70;60.40
61398;DHT22;47267;48.130;-2.040;2022-09-29T12:37:52;17.70;60.40
61398;DHT22;47267;48.130;-2.040;2022-09-29T12:40:31;17.70;60.40
61398;DHT22;47267;48.130;-2.040;2022-09-29T12:46:04;17.70;60.40
61398;DHT22;47267;48.130;-2.040;2022-09-29T12:56:57;17.70;60.40
61398;DHT22;47267;48.130;-2.040;2022-09-29T13:01:57;17.70;60.40
61398;DHT22;47267;48.130;-2.040;2022-09-29T13:19:04;17.70;60.40
61398;DHT22;47267;48.130;-2.040;2022-09-29T13:27:16;17.70;60.40
61398;DHT22;47267;48.130;-2.040;2022-09-29T13:29:54;17.70;60.40
61398;DHT22;47267;48.130;-2.040;2022-09-29T13:32:22;17.70;60.40
61398;DHT22;47267;48.130;-2.040;2022-09-29T13:34:57;17.70;60.40
61398;DHT22;47267;48.130;-2.040;2022-09-29T13:37:27;17.70;60.40
61398;DHT22;47267;48.130;-2.040;2022-09-29T13:40:05;17.70;60.40
61398;DHT22;47267;48.130;-2.040;2022-09-29T13:47:55;17.70;60.50
61398;DHT22;47267;48.130;-2.040;2022-09-29T13:50:50;17.70;60.50
61398;DHT22;47267;48.130;-2.040;2022-09-29T13:58:32;17.70;60.50
61398;DHT22;47267;48.130;-2.040;2022-09-29T14:01:00;17.70;60.50
61398;DHT22;47267;48.130;-2.040;2022-09-29T14:03:39;17.70;60.50
61398;DHT22;47267;48.130;-2.040;2022-09-29T14:06:06;17.70;60.50
61398;DHT22;47267;48.130;-2.040;2022-09-29T14:09:00;17.70;60.50
61398;DHT22;47267;48.130;-2.040;2022-09-29T14:11:29;17.70;60.50
61398;DHT22;47267;48.130;-2.040;2022-09-29T14:14:22;17.70;60.50
61398;DHT22;47267;48.130;-2.040;2022-09-29T14:16:54;17.70;60.50
61398;DHT22;47267;48.130;-2.040;2022-09-29T14:22:00;17.80;60.60
61398;DHT22;47267;48.130;-2.040;2022-09-29T14:27:31;17.80;60.70
61398;DHT22;47267;48.130;-2.040;2022-09-29T14:30:13;17.80;60.60
61398;DHT22;47267;48.130;-2.040;2022-09-29T14:32:55;17.80;60.60
61398;DHT22;47267;48.130;-2.040;2022-09-29T14:35:32;17.80;60.70
61398;DHT22;47267;48.130;-2.040;2022-09-29T14:38:23;17.80;60.90
61398;DHT22;47267;48.130;-2.040;2022-09-29T14:43:19;17.90;60.90
61398;DHT22;47267;48.130;-2.040;2022-09-29T14:48:50;17.90;60.90
61398;DHT22;47267;48.130;-2.040;2022-09-29T14:51:44;17.90;61.00
61398;DHT22;47267;48.130;-2.040;2022-09-29T15:00:32;18.00;61.30
61398;DHT22;47267;48.130;-2.040;2022-09-29T15:03:06;18.10;61.70
61398;DHT22;47267;48.130;-2.040;2022-09-29T15:05:34;18.10;61.50
61398;DHT22;47267;48.130;-2.040;2022-09-29T15:08:01;18.10;61.50
61398;DHT22;47267;48.130;-2.040;2022-09-29T15:10:38;18.20;61.60
61398;DHT22;47267;48.130;-2.040;2022-09-29T15:15:47;18.20;61.40
61398;DHT22;47267;48.130;-2.040;2022-09-29T15:21:05;18.30;61.70
61398;DHT22;47267;48.130;-2.040;2022-09-29T15:26:20;18.40;61.70
61398;DHT22;47267;48.130;-2.040;2022-09-29T15:28:46;18.40;61.50
61398;DHT22;47267;48.130;-2.040;2022-09-29T15:31:17;18.40;62.20
61398;DHT22;47267;48.130;-2.040;2022-09-29T15:33:44;18.50;61.70
61398;DHT22;47267;48.130;-2.040;2022-09-29T15:36:34;18.50;61.60
61398;DHT22;47267;48.130;-2.040;2022-09-29T15:39:06;18.50;61.60
61398;DHT22;47267;48.130;-2.040;2022-09-29T15:41:37;18.60;61.90
61398;DHT22;47267;48.130;-2.040;2022-09-29T15:44:13;18.60;61.80
61398;DHT22;47267;48.130;-2.040;2022-09-29T15:46:50;18.60;61.70
61398;DHT22;47267;48.130;-2.040;2022-09-29T15:49:17;18.70;61.70
61398;DHT22;47267;48.130;-2.040;2022-09-29T15:52:03;18.70;61.70
61398;DHT22;47267;48.130;-2.040;2022-09-29T15:54:34;18.80;61.70
61398;DHT22;47267;48.130;-2.040;2022-09-29T15:57:02;18.80;61.60
61398;DHT22;47267;48.130;-2.040;2022-09-29T15:59:49;18.80;61.60
61398;DHT22;47267;48.130;-2.040;2022-09-29T16:02:18;18.80;61.50
61398;DHT22;47267;48.130;-2.040;2022-09-29T16:04:46;18.80;61.50
61398;DHT22;47267;48.130;-2.040;2022-09-29T16:07:19;18.80;61.40
61398;DHT22;47267;48.130;-2.040;2022-09-29T16:09:47;18.90;61.40
61398;DHT22;47267;48.130;-2.040;2022-09-29T16:12:16;18.90;61.40
61398;DHT22;47267;48.130;-2.040;2022-09-29T16:14:45;18.90;61.30
61398;DHT22;47267;48.130;-2.040;2022-09-29T16:17:12;18.90;61.30
61398;DHT22;47267;48.130;-2.040;2022-09-29T16:19:40;18.90;61.80
61398;DHT22;47267;48.130;-2.040;2022-09-29T16:22:07;19.00;61.30
61398;DHT22;47267;48.130;-2.040;2022-09-29T16:24:36;19.00;61.20
61398;DHT22;47267;48.130;-2.040;2022-09-29T16:27:37;19.00;61.20
61398;DHT22;47267;48.130;-2.040;2022-09-29T16:30:18;19.00;61.10
61398;DHT22;47267;48.130;-2.040;2022-09-29T16:32:44;19.00;61.10
61398;DHT22;47267;48.130;-2.040;2022-09-29T16:40:53;19.10;61.10
61398;DHT22;47267;48.130;-2.040;2022-09-29T16:43:27;19.00;61.10
61398;DHT22;47267;48.130;-2.040;2022-09-29T16:45:56;19.10;61.00
61398;DHT22;47267;48.130;-2.040;2022-09-29T16:48:26;19.10;60.90
61398;DHT22;47267;48.130;-2.040;2022-09-29T16:50:55;19.10;60.90
61398;DHT22;47267;48.130;-2.040;2022-09-29T16:53:32;19.10;60.90
61398;DHT22;47267;48.130;-2.040;2022-09-29T16:56:00;19.10;61.00
61398;DHT22;47267;48.130;-2.040;2022-09-29T16:58:28;19.10;60.90
61398;DHT22;47267;48.130;-2.040;2022-09-29T17:00:55;19.10;60.90
61398;DHT22;47267;48.130;-2.040;2022-09-29T17:03:21;19.10;60.90
61398;DHT22;47267;48.130;-2.040;2022-09-29T17:05:47;19.10;60.90
61398;DHT22;47267;48.130;-2.040;2022-09-29T17:08:24;19.20;61.00
61398;DHT22;47267;48.130;-2.040;2022-09-29T17:10:53;19.20;60.90
61398;DHT22;47267;48.130;-2.040;2022-09-29T17:13:19;19.10;60.80
61398;DHT22;47267;48.130;-2.040;2022-09-29T17:15:49;19.10;60.80
61398;DHT22;47267;48.130;-2.040;2022-09-29T17:18:17;19.10;60.80
61398;DHT22;47267;48.130;-2.040;2022-09-29T17:20:44;19.10;60.80
61398;DHT22;47267;48.130;-2.040;2022-09-29T17:23:10;19.20;60.80
61398;DHT22;47267;48.130;-2.040;2022-09-29T17:25:39;19.10;60.80
61398;DHT22;47267;48.130;-2.040;2022-09-29T17:28:20;19.10;60.80
61398;DHT22;47267;48.130;-2.040;2022-09-29T17:30:49;19.10;60.80
61398;DHT22;47267;48.130;-2.040;2022-09-29T17:33:17;19.10;60.70
61398;DHT22;47267;48.130;-2.040;2022-09-29T17:35:45;19.10;60.70
61398;DHT22;47267;48.130;-2.040;2022-09-29T17:38:13;19.10;60.70
61398;DHT22;47267;48.130;-2.040;2022-09-29T17:41:00;19.10;60.70
61398;DHT22;47267;48.130;-2.040;2022-09-29T17:43:30;19.10;60.70
61398;DHT22;47267;48.130;-2.040;2022-09-29T17:45:57;19.10;60.70
61398;DHT22;47267;48.130;-2.040;2022-09-29T17:48:24;19.10;60.70
61398;DHT22;47267;48.130;-2.040;2022-09-29T17:50:51;19.10;60.70
61398;DHT22;47267;48.130;-2.040;2022-09-29T17:53:19;19.10;60.70
61398;DHT22;47267;48.130;-2.040;2022-09-29T17:55:46;19.10;60.70
61398;DHT22;47267;48.130;-2.040;2022-09-29T17:58:15;19.10;60.70
61398;DHT22;47267;48.130;-2.040;2022-09-29T18:00:44;19.10;60.70
61398;DHT22;47267;48.130;-2.040;2022-09-29T18:03:14;19.10;60.70
61398;DHT22;47267;48.130;-2.040;2022-09-29T18:05:41;19.10;60.70
61398;DHT22;47267;48.130;-2.040;2022-09-29T18:08:12;19.10;60.70
61398;DHT22;47267;48.130;-2.040;2022-09-29T18:10:50;19.10;60.70
61398;DHT22;47267;48.130;-2.040;2022-09-29T18:13:17;19.10;60.70
61398;DHT22;47267;48.130;-2.040;2022-09-29T18:15:43;19.10;60.70
61398;DHT22;47267;48.130;-2.040;2022-09-29T18:18:12;19.10;60.70
61398;DHT22;47267;48.130;-2.040;2022-09-29T18:20:40;19.10;60.70
61398;DHT22;47267;48.130;-2.040;2022-09-29T18:23:06;19.00;60.60
61398;DHT22;47267;48.130;-2.040;2022-09-29T18:25:32;19.00;60.60
61398;DHT22;47267;48.130;-2.040;2022-09-29T18:28:00;19.00;60.60
61398;DHT22;47267;48.130;-2.040;2022-09-29T18:30:30;19.10;60.70
61398;DHT22;47267;48.130;-2.040;2022-09-29T18:32:57;19.00;60.60
61398;DHT22;47267;48.130;-2.040;2022-09-29T18:35:31;19.10;60.70
61398;DHT22;47267;48.130;-2.040;2022-09-29T18:37:58;19.00;60.60
61398;DHT22;47267;48.130;-2.040;2022-09-29T18:40:25;19.00;60.60
61398;DHT22;47267;48.130;-2.040;2022-09-29T18:42:53;19.00;60.60
61398;DHT22;47267;48.130;-2.040;2022-09-29T18:45:23;19.00;60.60
61398;DHT22;47267;48.130;-2.040;2022-09-29T18:47:51;19.00;60.60
61398;DHT22;47267;48.130;-2.040;2022-09-29T18:50:23;19.00;60.60
61398;DHT22;47267;48.130;-2.040;2022-09-29T18:52:50;19.00;60.60
61398;DHT22;47267;48.130;-2.040;2022-09-29T18:55:18;19.00;60.60
61398;DHT22;47267;48.130;-2.040;2022-09-29T18:57:45;18.90;60.60
61398;DHT22;47267;48.130;-2.040;2022-09-29T19:00:17;18.90;60.60
61398;DHT22;47267;48.130;-2.040;2022-09-29T19:02:45;18.90;60.50